Time;durP1;ratioP1;P1;durP2;ratioP2;P2;SDS_P1;SDS_P2;PMS_P1;PMS_P2;Temp;Humidity;BMP_temperature;BMP_pressure;BME280_temperature;BME280_humidity;BME280_pressure;Samples;Min_cycle;Max_cycle;Signal;HPM_P1;HPM_P2
2023/06/17 00:02:20;;;;;;;12.48;5.90;;;14.00;99.90;;;;;;5090006;28;20357;-73
2023/06/17 00:04:46;;;;;;;10.68;6.30;;;13.80;99.90;;;;;;5089986;28;20024;-73
2023/06/17 00:07:12;;;;;;;13.32;6.50;;;13.50;99.90;;;;;;5089331;28;20108;-73
2023/06/17 00:09:41;;;;;;;9.98;6.00;;;13.40;99.90;;;;;;5089787;28;20106;-73
2023/06/17 00:12:07;;;;;;;16.83;6.47;;;13.40;99.90;;;;;;5089127;28;20032;-73
2023/06/17 00:14:33;;;;;;;13.98;6.18;;;13.40;99.90;;;;;;5089589;28;20047;-73
2023/06/17 00:17:00;;;;;;;11.45;6.05;;;13.40;99.90;;;;;;5088988;28;20419;-73
2023/06/17 00:19:27;;;;;;;10.07;5.78;;;13.50;99.90;;;;;;5089148;28;20028;-73
2023/06/17 00:21:53;;;;;;;11.45;6.63;;;13.60;99.90;;;;;;5088998;28;20552;-73
2023/06/17 00:24:19;;;;;;;10.32;6.50;;;13.70;99.90;;;;;;5089529;28;20039;-73
2023/06/17 00:26:48;;;;;;;11.15;6.18;;;13.70;99.90;;;;;;5089401;28;20039;-73
2023/06/17 00:29:15;;;;;;;10.75;6.38;;;13.80;99.90;;;;;;5088875;28;20028;-73
2023/06/17 00:31:41;;;;;;;10.10;6.53;;;13.80;99.90;;;;;;5089441;28;20032;-73
2023/06/17 00:34:06;;;;;;;10.48;6.60;;;13.70;99.90;;;;;;5088667;28;20086;-74
2023/06/17 00:36:32;;;;;;;11.60;6.75;;;13.50;99.90;;;;;;5089385;28;20035;-73
2023/06/17 00:38:58;;;;;;;10.82;6.55;;;13.50;99.90;;;;;;5088584;28;20036;-73
2023/06/17 00:41:23;;;;;;;13.02;6.90;;;13.50;99.90;;;;;;5089262;28;20063;-73
2023/06/17 00:43:49;;;;;;;9.93;6.72;;;13.30;99.90;;;;;;5089074;28;20485;-73
2023/06/17 00:46:30;;;;;;;10.00;6.28;;;13.20;99.90;;;;;;5088715;28;20048;-73
2023/06/17 00:48:56;;;;;;;;;;;13.10;99.90;;;;;;5088727;28;20061;-73
2023/06/17 00:51:21;;;;;;;9.93;6.38;;;13.10;99.90;;;;;;5089358;28;19904;-74
2023/06/17 00:53:47;;;;;;;11.25;7.05;;;13.00;99.90;;;;;;5089066;28;20055;-73
2023/06/17 00:56:13;;;;;;;9.85;5.97;;;12.90;99.90;;;;;;5088153;28;20138;-73
2023/06/17 00:58:39;;;;;;;11.70;6.10;;;13.00;99.90;;;;;;5088987;28;20070;-73
2023/06/17 01:01:05;;;;;;;11.70;7.15;;;13.10;99.90;;;;;;5087932;28;20028;-73
2023/06/17 01:03:30;;;;;;;11.40;6.60;;;13.20;99.90;;;;;;5121801;27;20165;-73
2023/06/17 01:05:59;;;;;;;11.48;6.90;;;13.40;99.90;;;;;;5088093;28;20062;-73
2023/06/17 01:08:33;;;;;;;12.88;7.72;;;13.50;99.90;;;;;;5088992;28;20030;-73
2023/06/17 01:11:14;;;;;;;10.80;6.75;;;13.50;99.90;;;;;;5088207;28;20472;-73
2023/06/17 01:13:45;;;;;;;12.60;6.88;;;13.50;99.90;;;;;;5088930;28;20032;-73
2023/06/17 01:16:11;;;;;;;10.68;6.78;;;13.30;99.90;;;;;;5088042;28;20209;-73
2023/06/17 01:18:40;;;;;;;11.88;6.63;;;13.10;99.90;;;;;;5088782;28;20036;-73
2023/06/17 01:21:06;;;;;;;11.73;6.43;;;12.90;99.90;;;;;;5087949;28;20368;-73
2023/06/17 01:23:37;;;;;;;10.68;6.57;;;12.90;99.90;;;;;;5088714;28;20028;-73
2023/06/17 01:26:04;;;;;;;10.60;6.82;;;12.90;99.90;;;;;;5087994;28;20833;-73
2023/06/17 01:28:30;;;;;;;11.90;6.55;;;12.80;99.90;;;;;;5088662;28;20039;-73
2023/06/17 01:30:57;;;;;;;12.13;6.88;;;12.80;99.90;;;;;;5087322;28;20115;-72
2023/06/17 01:33:23;;;;;;;11.88;6.55;;;12.80;99.90;;;;;;5088243;28;20024;-73
2023/06/17 01:36:12;;;;;;;11.68;6.72;;;12.80;99.90;;;;;;5088483;28;20039;-73
2023/06/17 01:38:50;;;;;;;11.73;7.15;;;12.70;99.90;;;;;;5088547;28;20135;-73
2023/06/17 01:41:19;;;;;;;14.82;7.18;;;12.70;99.90;;;;;;5087851;28;20066;-73
2023/06/17 01:43:47;;;;;;;12.93;6.75;;;12.60;99.90;;;;;;5088464;28;20028;-73
2023/06/17 01:46:14;;;;;;;10.45;6.85;;;12.60;99.90;;;;;;5087462;28;20040;-73
2023/06/17 01:48:40;;;;;;;11.93;7.30;;;12.50;99.90;;;;;;5088481;28;20024;-73
2023/06/17 01:51:06;;;;;;;13.90;7.50;;;12.50;99.90;;;;;;5087735;28;20465;-73
2023/06/17 01:53:32;;;;;;;12.25;6.82;;;12.50;99.90;;;;;;5088288;28;20052;-74
2023/06/17 01:55:58;;;;;;;12.65;7.20;;;12.50;99.90;;;;;;5087116;28;20066;-72
2023/06/17 01:58:24;;;;;;;12.00;7.13;;;12.50;99.90;;;;;;5121249;28;20036;-73
2023/06/17 02:00:49;;;;;;;12.98;7.20;;;12.60;99.90;;;;;;5088339;28;20024;-73
2023/06/17 02:03:18;;;;;;;12.63;7.20;;;12.50;99.90;;;;;;5087373;28;20020;-73
2023/06/17 02:05:44;;;;;;;10.70;7.05;;;12.40;99.90;;;;;;5088179;28;20449;-73
2023/06/17 02:08:11;;;;;;;10.07;6.75;;;12.50;99.90;;;;;;5086033;28;20357;-73
2023/06/17 02:10:37;;;;;;;11.43;7.20;;;12.60;99.90;;;;;;5087993;28;20111;-73
2023/06/17 02:13:03;;;;;;;13.35;7.32;;;12.50;99.90;;;;;;5087429;28;20024;-73
2023/06/17 02:15:30;;;;;;;12.80;7.55;;;12.40;99.90;;;;;;5088053;28;20081;-74
2023/06/17 02:17:56;;;;;;;15.80;7.93;;;12.20;99.90;;;;;;5087748;28;20075;-72
2023/06/17 02:20:22;;;;;;;12.00;7.47;;;12.30;99.90;;;;;;5087948;28;20032;-73
2023/06/17 02:22:48;;;;;;;13.15;7.72;;;12.20;99.90;;;;;;5087889;28;20090;-73
2023/06/17 02:25:14;;;;;;;13.95;7.28;;;12.10;99.90;;;;;;5087174;28;20088;-73
2023/06/17 02:27:40;;;;;;;14.95;8.40;;;12.00;99.90;;;;;;5087808;28;20028;-73
2023/06/17 02:30:07;;;;;;;14.07;7.90;;;11.90;99.90;;;;;;5087338;28;20020;-73
2023/06/17 02:32:33;;;;;;;12.43;7.45;;;11.80;99.90;;;;;;5088144;28;20024;-74
2023/06/17 02:34:58;;;;;;;17.08;6.88;;;11.90;99.90;;;;;;5086995;28;20036;-72
2023/06/17 02:37:24;;;;;;;13.45;8.00;;;12.00;99.90;;;;;;5087903;28;20031;-73
2023/06/17 02:39:50;;;;;;;11.07;7.25;;;12.10;99.90;;;;;;5087890;28;20618;-73
2023/06/17 02:42:16;;;;;;;13.23;8.27;;;12.10;99.90;;;;;;5086929;28;20103;-73
2023/06/17 02:44:41;;;;;;;12.90;8.13;;;12.00;99.90;;;;;;5091404;28;20456;-73
2023/06/17 02:47:07;;;;;;;12.73;7.80;;;12.10;99.90;;;;;;5090741;28;20052;-73
2023/06/17 02:49:33;;;;;;;17.17;7.72;;;11.90;99.90;;;;;;5091553;28;20034;-73
2023/06/17 02:51:58;;;;;;;14.48;8.23;;;11.90;99.90;;;;;;5090721;28;20028;-72
2023/06/17 02:54:24;;;;;;;12.95;7.60;;;11.80;99.90;;;;;;5091134;28;20074;-73
2023/06/17 02:56:49;;;;;;;13.57;7.78;;;11.60;99.90;;;;;;5091018;28;20149;-73
2023/06/17 02:59:15;;;;;;;12.95;8.10;;;11.60;99.90;;;;;;5090520;28;20036;-73
2023/06/17 03:01:42;;;;;;;10.75;6.95;;;11.50;99.90;;;;;;5091295;28;20452;-73
2023/06/17 03:04:12;;;;;;;12.20;7.28;;;11.50;99.90;;;;;;5090387;28;20043;-73
2023/06/17 03:06:40;;;;;;;11.75;7.22;;;11.50;99.90;;;;;;5091048;28;20182;-73
2023/06/17 03:09:07;;;;;;;14.18;7.60;;;11.50;99.90;;;;;;5090173;28;20028;-74
2023/06/17 03:11:32;;;;;;;12.35;7.65;;;11.50;99.90;;;;;;5090935;28;20030;-72
2023/06/17 03:13:58;;;;;;;12.68;7.85;;;11.60;99.90;;;;;;5090335;28;20028;-72
2023/06/17 03:16:24;;;;;;;13.88;8.15;;;11.70;99.90;;;;;;5090485;28;20040;-73
2023/06/17 03:18:50;;;;;;;19.63;7.53;;;11.60;99.90;;;;;;5090844;28;20051;-72
2023/06/17 03:21:16;;;;;;;11.63;7.32;;;11.60;99.90;;;;;;5090069;28;20033;-73
2023/06/17 03:23:42;;;;;;;13.10;7.43;;;11.50;99.90;;;;;;5090550;28;20108;-73
2023/06/17 03:26:09;;;;;;;15.32;6.97;;;11.40;99.90;;;;;;5089677;28;20086;-73
2023/06/17 03:28:35;;;;;;;12.45;7.10;;;11.30;99.90;;;;;;5090577;28;20103;-72
2023/06/17 03:31:02;;;;;;;10.77;6.75;;;11.30;99.90;;;;;;5090201;28;20464;-72
2023/06/17 03:33:28;;;;;;;13.13;7.40;;;11.30;99.90;;;;;;5090577;28;20024;-73
2023/06/17 03:35:54;;;;;;;11.93;7.10;;;11.30;99.90;;;;;;5090495;28;20040;-73
2023/06/17 03:38:19;;;;;;;11.73;6.75;;;11.10;99.90;;;;;;5089722;28;20054;-73
2023/06/17 03:40:45;;;;;;;13.05;7.25;;;11.00;99.90;;;;;;5088819;28;20032;-73
2023/06/17 03:43:13;;;;;;;13.70;7.45;;;11.00;99.90;;;;;;5089568;28;20032;-72
2023/06/17 03:45:39;;;;;;;14.05;7.50;;;10.90;99.90;;;;;;5090140;28;20039;-72
2023/06/17 03:48:05;;;;;;;13.10;7.50;;;11.10;99.90;;;;;;5089475;28;20024;-72
2023/06/17 03:50:31;;;;;;;10.25;7.22;;;11.20;99.90;;;;;;5090215;28;20035;-73
2023/06/17 03:52:57;;;;;;;13.55;7.18;;;11.30;99.90;;;;;;5089943;28;20028;-72
2023/06/17 03:55:23;;;;;;;11.82;7.40;;;11.40;99.90;;;;;;5088159;28;20320;-73
2023/06/17 03:57:49;;;;;;;14.65;8.02;;;11.50;99.90;;;;;;5090073;28;20541;-73
2023/06/17 04:00:15;;;;;;;11.70;7.18;;;11.60;99.90;;;;;;5088948;28;20046;-73
2023/06/17 04:02:45;;;;;;;11.85;7.38;;;11.70;99.90;;;;;;5090059;28;20028;-73
2023/06/17 04:05:13;;;;;;;12.23;7.22;;;11.60;99.90;;;;;;5089151;28;20567;-72
2023/06/17 04:07:39;;;;;;;11.30;6.57;;;11.60;99.90;;;;;;5090054;28;20035;-72
2023/06/17 04:10:08;;;;;;;11.90;7.10;;;11.60;99.90;;;;;;5089043;28;20032;-72
2023/06/17 04:12:38;;;;;;;12.88;7.30;;;11.40;99.90;;;;;;5089828;28;20020;-73
2023/06/17 04:15:06;;;;;;;12.57;7.70;;;11.30;99.90;;;;;;5089050;28;20035;-72
2023/06/17 04:17:31;;;;;;;14.27;7.45;;;11.40;99.90;;;;;;5089809;28;20492;-72
2023/06/17 04:20:04;;;;;;;14.82;7.18;;;11.60;99.90;;;;;;5090098;28;20031;-72
2023/06/17 04:22:29;;;;;;;11.95;7.18;;;11.80;99.90;;;;;;5089756;28;20066;-72
2023/06/17 04:24:55;;;;;;;12.63;7.55;;;12.00;99.90;;;;;;5089521;28;20059;-72
2023/06/17 04:27:22;;;;;;;11.23;7.22;;;12.10;99.90;;;;;;5088533;28;20301;-72
2023/06/17 04:29:48;;;;;;;12.93;7.53;;;12.20;99.90;;;;;;5089463;28;20035;-72
2023/06/17 04:32:15;;;;;;;13.85;7.20;;;12.40;99.90;;;;;;5088858;28;20032;-73
2023/06/17 04:34:47;;;;;;;12.75;7.68;;;12.50;99.90;;;;;;5089096;28;20036;-72
2023/06/17 04:37:14;;;;;;;16.02;7.30;;;12.70;99.90;;;;;;5088580;28;20464;-72
2023/06/17 04:39:42;;;;;;;11.00;7.20;;;12.80;99.90;;;;;;5089174;28;20491;-73
2023/06/17 04:42:12;;;;;;;13.82;7.93;;;12.50;99.90;;;;;;5088404;28;20476;-74
2023/06/17 04:44:38;;;;;;;;;;;12.40;99.90;;;;;;5089835;28;20101;-73
2023/06/17 04:47:06;;;;;;;13.00;7.35;;;12.20;99.90;;;;;;5088474;28;20335;-72
2023/06/17 04:49:38;;;;;;;13.18;7.65;;;12.10;99.90;;;;;;5089252;28;20043;-72
2023/06/17 04:52:11;;;;;;;13.65;8.40;;;12.20;99.90;;;;;;5088910;28;20064;-72
2023/06/17 04:54:37;;;;;;;15.38;8.68;;;12.40;99.90;;;;;;5088922;28;20575;-72
2023/06/17 04:57:04;;;;;;;15.07;7.93;;;12.60;99.90;;;;;;5088761;28;20043;-71
2023/06/17 04:59:30;;;;;;;11.07;7.60;;;12.70;99.90;;;;;;5088496;28;20056;-72
2023/06/17 05:01:56;;;;;;;13.18;8.55;;;12.80;99.90;;;;;;5089070;28;20067;-72
2023/06/17 05:04:21;;;;;;;13.20;8.20;;;13.00;99.90;;;;;;5088232;28;20029;-72
2023/06/17 05:06:47;;;;;;;16.38;8.50;;;13.00;99.90;;;;;;5088600;28;20043;-72
2023/06/17 05:09:13;;;;;;;13.68;8.52;;;13.10;99.90;;;;;;5088479;28;20127;-72
2023/06/17 05:11:40;;;;;;;15.77;8.23;;;13.10;99.90;;;;;;5088740;28;20384;-72
2023/06/17 05:14:06;;;;;;;15.73;8.32;;;13.20;99.90;;;;;;5121065;27;20482;-71
2023/06/17 05:16:32;;;;;;;16.95;8.95;;;13.40;99.90;;;;;;5088555;28;20032;-72
2023/06/17 05:18:58;;;;;;;14.60;9.30;;;13.60;99.90;;;;;;5088704;28;20300;-72
2023/06/17 05:21:23;;;;;;;13.40;8.05;;;13.70;99.90;;;;;;5120707;27;20539;-72
2023/06/17 05:23:50;;;;;;;12.45;8.68;;;13.80;99.90;;;;;;5088545;28;20031;-72
2023/06/17 05:26:16;;;;;;;13.68;8.50;;;13.90;99.90;;;;;;5087623;28;20039;-72
2023/06/17 05:28:41;;;;;;;13.15;8.45;;;14.10;99.90;;;;;;5088518;28;20020;-72
2023/06/17 05:31:08;;;;;;;14.23;8.63;;;14.30;99.90;;;;;;5087864;28;20024;-72
2023/06/17 05:33:34;;;;;;;14.25;8.75;;;14.60;99.90;;;;;;5088472;28;20161;-73
2023/06/17 05:36:00;;;;;;;12.77;8.32;;;14.80;99.90;;;;;;5088540;28;20516;-72
2023/06/17 05:38:29;;;;;;;15.15;8.55;;;15.00;99.90;;;;;;5120446;28;20654;-72
2023/06/17 05:40:55;;;;;;;15.95;8.13;;;15.20;99.90;;;;;;5088296;28;20102;-72
2023/06/17 05:43:21;;;;;;;16.50;9.10;;;15.20;99.90;;;;;;5087487;28;20066;-73
2023/06/17 05:45:47;;;;;;;15.20;9.50;;;15.20;99.90;;;;;;5088298;28;20036;-71
2023/06/17 05:48:12;;;;;;;16.88;9.38;;;15.30;99.90;;;;;;5087895;28;20032;-72
2023/06/17 05:50:38;;;;;;;15.07;8.98;;;15.30;99.90;;;;;;5088438;28;20054;-72
2023/06/17 05:53:04;;;;;;;14.43;8.85;;;15.40;99.90;;;;;;5088179;28;20024;-72
2023/06/17 05:55:30;;;;;;;12.77;8.30;;;15.40;99.90;;;;;;5087423;28;20050;-72
2023/06/17 05:57:56;;;;;;;16.75;9.45;;;15.50;99.90;;;;;;5088090;28;20469;-72
2023/06/17 06:00:22;;;;;;;11.93;8.75;;;15.70;99.90;;;;;;5087569;28;20420;-72
2023/06/17 06:02:48;;;;;;;14.82;8.52;;;15.90;99.90;;;;;;5088359;28;20032;-72
2023/06/17 06:05:14;;;;;;;15.48;8.52;;;16.10;99.90;;;;;;5087354;28;20036;-71
2023/06/17 06:07:41;;;;;;;13.90;8.77;;;16.30;99.90;;;;;;5088191;28;20040;-72
2023/06/17 06:10:07;;;;;;;12.80;8.35;;;16.50;99.90;;;;;;5088220;28;20023;-71
2023/06/17 06:12:33;;;;;;;12.55;7.88;;;16.60;99.90;;;;;;5087418;28;20020;-72
2023/06/17 06:14:59;;;;;;;14.65;8.70;;;16.60;99.90;;;;;;5087977;28;20468;-71
2023/06/17 06:17:25;;;;;;;14.50;8.38;;;16.80;99.90;;;;;;5087430;28;20036;-73
2023/06/17 06:19:51;;;;;;;15.85;8.27;;;17.00;99.90;;;;;;5092043;28;20093;-72
2023/06/17 06:22:17;;;;;;;17.27;8.65;;;17.20;99.90;;;;;;5091189;28;20024;-71
2023/06/17 06:24:43;;;;;;;16.58;8.80;;;17.40;99.90;;;;;;5091859;28;20059;-72
2023/06/17 06:27:08;;;;;;;13.88;8.25;;;17.70;99.90;;;;;;5091600;28;20074;-71
2023/06/17 06:29:34;;;;;;;13.98;8.45;;;18.00;99.90;;;;;;5091606;28;20035;-72
2023/06/17 06:32:00;;;;;;;15.38;8.23;;;18.20;99.90;;;;;;5091453;28;20024;-72
2023/06/17 06:34:26;;;;;;;16.98;8.57;;;18.40;99.90;;;;;;5090931;28;20020;-72
2023/06/17 06:36:51;;;;;;;13.48;8.10;;;18.60;99.90;;;;;;5091718;28;20381;-71
2023/06/17 06:39:17;;;;;;;13.63;7.53;;;18.60;99.90;;;;;;5090782;28;20024;-71
2023/06/17 06:41:43;;;;;;;13.45;8.10;;;18.70;99.90;;;;;;5091415;28;20824;-71
2023/06/17 06:44:08;;;;;;;14.77;7.88;;;18.80;99.90;;;;;;5091272;28;20107;-72
2023/06/17 06:46:34;;;;;;;13.18;8.30;;;18.90;99.90;;;;;;5090528;28;20044;-71
2023/06/17 06:49:00;;;;;;;18.67;8.70;;;18.90;99.90;;;;;;5091504;28;20030;-71
2023/06/17 06:51:25;;;;;;;17.67;8.07;;;18.90;99.90;;;;;;5090553;28;20074;-72
2023/06/17 06:53:51;;;;;;;12.88;7.53;;;19.00;99.90;;;;;;5091288;28;20457;-71
2023/06/17 06:56:17;;;;;;;11.15;7.20;;;19.30;99.90;;;;;;5090231;28;20046;-72
2023/06/17 06:58:43;;;;;;;11.75;7.80;;;19.60;99.90;;;;;;5091437;28;20032;-72
2023/06/17 07:01:09;;;;;;;15.25;7.72;;;19.90;99.90;;;;;;5091336;28;20107;-72
2023/06/17 07:03:35;;;;;;;13.70;7.28;;;20.20;99.90;;;;;;5090677;28;20031;-72
2023/06/17 07:06:00;;;;;;;12.88;7.50;;;20.20;99.90;;;;;;5091109;28;20457;-71
2023/06/17 07:08:26;;;;;;;17.95;7.15;;;20.40;99.90;;;;;;5090326;28;20020;-72
2023/06/17 07:10:52;;;;;;;15.52;7.45;;;20.50;99.90;;;;;;5090828;28;20028;-71
2023/06/17 07:13:17;;;;;;;10.63;7.30;;;20.60;99.90;;;;;;5090204;28;20039;-71
2023/06/17 07:15:46;;;;;;;10.40;6.93;;;20.70;99.90;;;;;;5091010;28;20144;-71
2023/06/17 07:18:13;;;;;;;12.25;7.30;;;20.80;99.90;;;;;;5090459;28;20105;-71
2023/06/17 07:20:39;;;;;;;11.65;7.22;;;20.80;99.90;;;;;;5090568;28;20043;-71
2023/06/17 07:23:04;;;;;;;10.80;6.65;;;21.00;99.90;;;;;;5089778;28;20028;-71
2023/06/17 07:25:30;;;;;;;12.20;7.40;;;21.20;99.90;;;;;;5089943;28;20110;-70
2023/06/17 07:28:02;;;;;;;13.48;7.40;;;21.30;98.90;;;;;;5090675;28;20028;-71
2023/06/17 07:30:28;;;;;;;13.07;7.38;;;21.50;99.80;;;;;;5089790;28;20115;-71
2023/06/17 07:32:54;;;;;;;10.32;7.32;;;21.60;99.10;;;;;;5090660;28;20116;-71
2023/06/17 07:35:20;;;;;;;10.23;6.85;;;21.60;99.00;;;;;;5089942;28;20028;-71
2023/06/17 07:37:45;;;;;;;8.95;6.65;;;21.50;96.60;;;;;;5090524;28;20031;-71
2023/06/17 07:40:12;;;;;;;16.95;7.93;;;21.50;96.70;;;;;;5090536;28;20062;-71
2023/06/17 07:42:42;;;;;;;18.13;7.30;;;21.60;96.70;;;;;;5089903;28;20024;-71
2023/06/17 07:45:09;;;;;;;14.05;7.32;;;21.60;96.10;;;;;;5090591;28;20084;-70
2023/06/17 07:47:35;;;;;;;10.63;6.82;;;21.60;94.90;;;;;;5089592;28;20055;-71
2023/06/17 07:50:00;;;;;;;10.95;6.90;;;21.50;96.20;;;;;;5090361;28;20024;-71
2023/06/17 07:52:26;;;;;;;8.60;6.20;;;21.80;96.20;;;;;;5089568;28;20405;-70
2023/06/17 07:54:52;;;;;;;12.20;6.28;;;22.00;92.90;;;;;;5090261;28;20099;-71
2023/06/17 07:57:18;;;;;;;13.68;7.05;;;22.10;93.90;;;;;;5075189;28;20028;-71
2023/06/17 07:59:44;;;;;;;9.90;6.65;;;22.20;93.20;;;;;;5070051;28;20036;-71
2023/06/17 08:02:10;;;;;;;13.60;6.88;;;22.50;93.10;;;;;;5069807;28;20058;-70
2023/06/17 08:04:37;;;;;;;16.02;6.75;;;22.60;92.90;;;;;;5068924;28;20095;-71
2023/06/17 08:07:04;;;;;;;11.55;6.82;;;22.70;93.70;;;;;;5069641;28;20032;-71
2023/06/17 08:09:30;;;;;;;12.02;6.50;;;22.90;91.40;;;;;;5068832;28;20497;-70
2023/06/17 08:11:56;;;;;;;9.73;6.50;;;23.00;91.60;;;;;;5069459;28;20028;-70
2023/06/17 08:14:21;;;;;;;8.30;6.15;;;22.90;87.80;;;;;;5068938;28;20032;-70
2023/06/17 08:16:47;;;;;;;9.23;6.60;;;22.70;88.60;;;;;;5069117;28;20100;-71
2023/06/17 08:19:13;;;;;;;21.42;6.65;;;22.60;90.00;;;;;;5069552;28;20044;-71
2023/06/17 08:21:41;;;;;;;10.85;6.18;;;22.80;89.00;;;;;;5068757;28;20742;-70
2023/06/17 08:24:21;;;;;;;15.18;6.22;;;22.80;86.30;;;;;;5082722;28;20362;-70
2023/06/17 08:26:47;;;;;;;8.45;6.05;;;22.80;88.10;;;;;;5089428;28;20024;-70
2023/06/17 08:29:15;;;;;;;11.95;6.50;;;23.10;87.70;;;;;;5089335;28;20028;-70
2023/06/17 08:31:45;;;;;;;12.45;6.70;;;23.30;84.10;;;;;;5089013;28;20112;-70
2023/06/17 08:34:12;;;;;;;13.25;6.40;;;23.30;84.40;;;;;;5089465;28;20116;-70
2023/06/17 08:36:40;;;;;;;14.52;6.10;;;23.50;81.80;;;;;;5088574;28;20031;-71
2023/06/17 08:39:06;;;;;;;10.50;6.35;;;23.40;79.90;;;;;;5089489;28;20060;-71
2023/06/17 08:41:38;;;;;;;10.50;6.07;;;23.50;81.50;;;;;;5088112;28;20541;-71
2023/06/17 08:44:06;;;;;;;11.38;6.10;;;23.60;81.70;;;;;;5089157;28;20028;-71
2023/06/17 08:46:32;;;;;;;12.23;6.18;;;23.70;80.40;;;;;;5088644;28;20097;-70
2023/06/17 08:48:59;;;;;;;12.48;6.38;;;23.70;80.10;;;;;;5089342;28;20116;-70
2023/06/17 08:51:25;;;;;;;10.68;6.30;;;23.80;77.00;;;;;;5088581;28;20024;-70
2023/06/17 08:53:52;;;;;;;12.15;6.75;;;23.70;78.70;;;;;;5089184;28;20038;-70
2023/06/17 08:56:18;;;;;;;9.98;6.50;;;23.80;78.10;;;;;;5088417;28;20161;-70
2023/06/17 08:58:44;;;;;;;11.68;6.55;;;23.90;78.90;;;;;;5088377;28;20034;-70
2023/06/17 09:01:14;;;;;;;9.90;6.20;;;23.90;77.90;;;;;;5088826;28;20388;-70
2023/06/17 09:03:44;;;;;;;15.10;6.93;;;24.00;75.70;;;;;;5088418;28;20585;-71
2023/06/17 09:06:28;;;;;;;11.90;6.47;;;24.00;72.90;;;;;;5088825;28;20035;-70
2023/06/17 09:08:56;;;;;;;10.80;6.40;;;24.20;76.70;;;;;;5088744;28;20427;-70
2023/06/17 09:11:28;;;;;;;13.57;6.65;;;24.40;74.80;;;;;;5087806;28;20369;-70
2023/06/17 09:13:56;;;;;;;11.23;6.20;;;24.30;71.40;;;;;;5088749;28;20028;-70
2023/06/17 09:16:29;;;;;;;14.00;6.63;;;24.30;71.80;;;;;;5087600;28;20032;-72
2023/06/17 09:19:02;;;;;;;9.35;6.32;;;24.30;70.70;;;;;;5088752;28;20032;-71
2023/06/17 09:21:28;;;;;;;10.43;6.47;;;24.30;66.40;;;;;;5088023;28;20124;-71
2023/06/17 09:24:02;;;;;;;11.55;6.72;;;24.30;70.50;;;;;;5088578;28;20538;-71
2023/06/17 09:26:38;;;;;;;11.35;6.80;;;24.30;72.50;;;;;;5087757;28;20595;-72
2023/06/17 09:29:12;;;;;;;12.40;6.90;;;24.10;71.80;;;;;;5088517;28;20040;-71
2023/06/17 09:31:54;;;;;;;13.55;6.70;;;23.80;72.50;;;;;;5087857;28;20882;-71
2023/06/17 09:34:21;;;;;;;9.07;6.28;;;23.60;71.90;;;;;;5088325;28;20032;-71
2023/06/17 09:37:00;;;;;;;15.27;6.50;;;23.80;69.60;;;;;;5088062;28;20055;-71
2023/06/17 09:39:33;;;;;;;12.15;6.28;;;24.10;69.50;;;;;;5088199;28;20455;-72
2023/06/17 09:42:09;;;;;;;11.73;6.72;;;24.10;70.80;;;;;;5088457;28;20020;-71
2023/06/17 09:44:40;;;;;;;13.43;7.78;;;24.00;74.90;;;;;;5087569;28;20020;-71
2023/06/17 09:47:07;;;;;;;13.10;7.13;;;23.90;76.60;;;;;;5088358;28;20142;-71
2023/06/17 09:49:34;;;;;;;11.40;7.30;;;23.80;76.70;;;;;;5087592;28;20026;-71
2023/06/17 09:52:02;;;;;;;14.70;7.55;;;23.80;76.40;;;;;;5088389;28;20050;-71
2023/06/17 09:54:29;;;;;;;11.43;6.78;;;24.20;71.70;;;;;;5091118;28;20097;-71
2023/06/17 09:56:58;;;;;;;9.77;6.57;;;24.80;70.90;;;;;;5091988;28;20032;-71
2023/06/17 09:59:26;;;;;;;17.70;6.78;;;25.40;68.50;;;;;;5091905;28;20071;-71
2023/06/17 10:01:54;;;;;;;11.10;7.03;;;26.00;68.70;;;;;;5092592;28;20028;-71
2023/06/17 10:04:20;;;;;;;10.90;6.90;;;26.50;61.50;;;;;;5092417;28;20055;-71
2023/06/17 10:06:49;;;;;;;9.68;6.30;;;26.60;59.20;;;;;;5091894;28;20056;-70
2023/06/17 10:09:15;;;;;;;13.32;6.82;;;26.20;59.70;;;;;;5092381;28;20024;-71
2023/06/17 10:11:47;;;;;;;9.23;6.43;;;26.20;61.00;;;;;;5092152;28;20499;-71
2023/06/17 10:14:33;;;;;;;11.15;6.75;;;26.60;59.40;;;;;;5092896;28;20041;-69
2023/06/17 10:17:00;;;;;;;9.48;6.85;;;26.60;58.80;;;;;;5091933;28;20098;-70
2023/06/17 10:19:31;;;;;;;9.13;6.28;;;26.60;58.40;;;;;;5091538;28;20103;-70
2023/06/17 10:21:58;;;;;;;9.30;6.55;;;26.50;58.60;;;;;;5092255;28;20052;-70
2023/06/17 10:24:26;;;;;;;12.10;6.95;;;26.40;57.20;;;;;;5091491;28;20392;-70
2023/06/17 10:26:52;;;;;;;8.90;6.50;;;25.80;59.40;;;;;;5091707;28;20035;-70
2023/06/17 10:29:18;;;;;;;9.73;5.95;;;25.40;58.50;;;;;;5092076;28;20051;-70
2023/06/17 10:31:43;;;;;;;14.90;6.90;;;25.10;59.00;;;;;;5091047;28;20193;-70
2023/06/17 10:34:15;;;;;;;10.50;6.85;;;25.20;57.50;;;;;;5091814;28;20062;-70
2023/06/17 10:36:41;;;;;;;14.55;6.68;;;25.40;57.90;;;;;;5090916;28;20028;-69
2023/06/17 10:39:13;;;;;;;12.27;7.22;;;25.90;57.30;;;;;;5091781;28;20034;-70
2023/06/17 10:41:38;;;;;;;9.98;6.47;;;26.20;57.00;;;;;;5090941;28;20528;-70
2023/06/17 10:44:35;;;;;;;10.07;6.18;;;26.60;58.10;;;;;;5091430;28;20102;-71
2023/06/17 10:47:15;;;;;;;11.55;6.80;;;26.40;56.30;;;;;;5090526;28;20076;-70
2023/06/17 10:49:48;;;;;;;9.15;6.68;;;26.00;56.50;;;;;;5089648;28;20105;-69
2023/06/17 10:52:14;;;;;;;12.63;6.22;;;25.70;58.30;;;;;;5090401;28;20024;-71
2023/06/17 10:54:54;;;;;;;11.25;6.35;;;25.80;56.30;;;;;;5089818;28;20479;-69
2023/06/17 10:57:31;;;;;;;9.70;6.70;;;25.90;54.40;;;;;;5090134;28;20039;-69
2023/06/17 11:00:07;;;;;;;9.50;6.32;;;26.30;56.80;;;;;;5090430;28;20020;-71
2023/06/17 11:02:33;;;;;;;10.90;6.88;;;26.70;55.80;;;;;;5089305;28;20190;-70
2023/06/17 11:05:01;;;;;;;8.63;6.20;;;27.10;52.60;;;;;;5122601;27;20111;-70
2023/06/17 11:07:27;;;;;;;10.98;6.13;;;26.90;55.00;;;;;;5122328;28;20071;-70
2023/06/17 11:09:53;;;;;;;12.18;7.10;;;27.00;54.30;;;;;;5089910;28;20032;-71
2023/06/17 11:12:19;;;;;;;9.32;6.82;;;27.30;51.40;;;;;;5089822;28;20430;-71
2023/06/17 11:14:45;;;;;;;8.77;5.97;;;27.70;51.30;;;;;;5089122;28;20094;-70
2023/06/17 11:17:11;;;;;;;9.25;6.72;;;27.70;51.60;;;;;;5089919;28;20044;-70
2023/06/17 11:19:36;;;;;;;10.68;6.88;;;27.60;52.50;;;;;;5087569;28;20032;-70
2023/06/17 11:22:07;;;;;;;11.35;6.55;;;27.60;53.00;;;;;;5089858;28;20124;-70
2023/06/17 11:24:33;;;;;;;11.63;7.10;;;27.70;55.10;;;;;;5089068;28;20035;-71
2023/06/17 11:27:00;;;;;;;10.32;6.18;;;27.90;51.00;;;;;;5089617;28;20093;-70
2023/06/17 11:29:26;;;;;;;11.65;6.82;;;27.70;52.50;;;;;;5089473;28;20042;-71
2023/06/17 11:31:54;;;;;;;12.30;6.28;;;27.20;52.50;;;;;;5089205;28;20036;-71
2023/06/17 11:34:22;;;;;;;13.85;7.18;;;26.80;54.10;;;;;;5089753;28;20032;-70
2023/06/17 11:36:54;;;;;;;10.20;6.35;;;27.00;52.50;;;;;;5088958;28;20032;-71
2023/06/17 11:39:23;;;;;;;9.77;6.70;;;26.90;50.20;;;;;;5089554;28;20032;-70
2023/06/17 11:41:50;;;;;;;9.10;6.47;;;27.00;50.90;;;;;;5088814;28;20026;-71
2023/06/17 11:44:17;;;;;;;12.48;6.68;;;27.30;53.50;;;;;;5089840;28;20067;-70
2023/06/17 11:46:43;;;;;;;11.15;7.05;;;27.60;52.20;;;;;;5042982;28;1303582;-70
2023/06/17 11:49:09;;;;;;;11.25;6.47;;;27.00;52.90;;;;;;5090331;28;20060;-70
2023/06/17 11:51:36;;;;;;;9.82;6.75;;;26.50;53.90;;;;;;5089643;28;20385;-70
2023/06/17 11:54:05;;;;;;;12.32;7.10;;;25.80;53.50;;;;;;5090187;28;20028;-71
2023/06/17 11:56:32;;;;;;;8.23;6.47;;;25.40;56.00;;;;;;5089570;28;20484;-71
2023/06/17 11:58:58;;;;;;;10.20;6.80;;;25.80;52.90;;;;;;5089951;28;20051;-71
2023/06/17 12:01:25;;;;;;;8.20;6.45;;;26.70;54.40;;;;;;5090341;28;20028;-70
2023/06/17 12:03:54;;;;;;;9.82;6.20;;;27.60;55.60;;;;;;5089469;28;20524;-71
2023/06/17 12:06:21;;;;;;;13.50;6.28;;;28.20;52.90;;;;;;5090385;28;20028;-70
2023/06/17 12:09:03;;;;;;;10.27;6.32;;;28.40;50.90;;;;;;5089158;28;20040;-70
2023/06/17 12:11:31;;;;;;;11.38;6.32;;;28.00;50.30;;;;;;5089800;28;20043;-70
2023/06/17 12:13:58;;;;;;;9.80;6.55;;;27.30;51.30;;;;;;5089720;28;20024;-70
2023/06/17 12:16:33;;;;;;;9.00;6.43;;;26.60;52.10;;;;;;5089040;28;20040;-70
2023/06/17 12:19:00;;;;;;;9.52;6.35;;;26.20;53.70;;;;;;5089763;28;20465;-71
2023/06/17 12:21:26;;;;;;;11.55;7.22;;;26.00;55.60;;;;;;5089486;28;20028;-70
2023/06/17 12:23:53;;;;;;;11.73;6.43;;;25.80;53.80;;;;;;5088926;28;20039;-71
2023/06/17 12:26:25;;;;;;;8.38;6.05;;;26.00;56.10;;;;;;5089495;28;20063;-71
2023/06/17 12:28:54;;;;;;;12.30;6.10;;;26.60;55.50;;;;;;5088329;28;20643;-71
2023/06/17 12:31:21;;;;;;;10.27;6.43;;;27.50;51.40;;;;;;5089632;28;20020;-71
2023/06/17 12:33:47;;;;;;;7.22;5.63;;;28.20;52.80;;;;;;5088655;28;20028;-71
2023/06/17 12:36:14;;;;;;;7.20;5.68;;;29.00;49.60;;;;;;5089496;28;20043;-71
2023/06/17 12:38:40;;;;;;;12.82;6.05;;;28.70;45.90;;;;;;5088798;28;20035;-70
2023/06/17 12:41:06;;;;;;;11.52;6.53;;;28.20;47.00;;;;;;5089423;28;20032;-71